Time;durP1;ratioP1;P1;durP2;ratioP2;P2;SDS_P1;SDS_P2;PMS_P1;PMS_P2;Temp;Humidity;BMP_temperature;BMP_pressure;BME280_temperature;BME280_humidity;BME280_pressure;Samples;Min_cycle;Max_cycle;Signal;HPM_P1;HPM_P2
2022/01/23 00:01:14;;;;;;;11.02;4.82;;;5.60;99.90;;;;;;5054849;28;20102;-73
2022/01/23 00:03:45;;;;;;;12.15;5.60;;;5.60;99.90;;;;;;5063962;28;20120;-73
2022/01/23 00:06:11;;;;;;;12.45;5.35;;;5.60;99.90;;;;;;5051284;28;20033;-73
2022/01/23 00:08:36;;;;;;;13.27;4.97;;;5.60;99.90;;;;;;5036080;28;20060;-75
2022/01/23 00:11:02;;;;;;;12.73;5.55;;;5.60;99.90;;;;;;5054972;28;20041;-73
2022/01/23 00:13:36;;;;;;;11.38;5.13;;;5.60;99.90;;;;;;5065192;28;20133;-73
2022/01/23 00:18:45;;;;;;;15.43;5.78;;;5.60;99.90;;;;;;5075423;28;20190;-75
2022/01/23 00:21:11;;;;;;;13.30;5.05;;;5.60;99.90;;;;;;5074934;28;20119;-73
2022/01/23 00:31:37;;;;;;;11.20;5.65;;;5.60;99.90;;;;;;5074933;28;20071;-73
2022/01/23 00:34:02;;;;;;;15.35;7.00;;;5.60;99.90;;;;;;5074535;28;20040;-73
2022/01/23 00:36:29;;;;;;;16.27;5.45;;;5.60;99.90;;;;;;5075079;28;20360;-73
2022/01/23 00:38:56;;;;;;;11.82;5.53;;;5.60;99.90;;;;;;5058378;28;20045;-73
2022/01/23 00:41:22;;;;;;;15.18;5.88;;;5.60;99.90;;;;;;5074669;28;20115;-73
2022/01/23 00:43:49;;;;;;;17.42;5.50;;;5.60;99.90;;;;;;5061982;28;20479;-72
2022/01/23 00:51:32;;;;;;;11.70;5.43;;;5.60;99.90;;;;;;5054602;28;20117;-73
2022/01/23 00:53:59;;;;;;;13.40;5.28;;;5.60;99.90;;;;;;5038117;28;20071;-72
2022/01/23 00:56:25;;;;;;;14.27;5.65;;;5.60;99.90;;;;;;5054250;28;20479;-73
2022/01/23 00:58:51;;;;;;;16.73;5.75;;;5.60;99.90;;;;;;5053896;28;20491;-73
2022/01/23 01:01:17;;;;;;;15.55;6.32;;;5.60;99.90;;;;;;5054028;28;20099;-73
2022/01/23 01:03:43;;;;;;;17.17;6.05;;;5.60;99.90;;;;;;5054636;28;20427;-73
2022/01/23 01:06:09;;;;;;;18.42;6.30;;;5.60;99.90;;;;;;5037896;28;20045;-73
2022/01/23 01:08:36;;;;;;;14.38;6.20;;;5.60;99.90;;;;;;5037733;28;20041;-73
2022/01/23 01:16:52;;;;;;;12.35;5.70;;;5.60;99.90;;;;;;5054689;28;20071;-73
2022/01/23 01:33:11;;;;;;;15.85;6.20;;;5.60;99.90;;;;;;5054107;28;20145;-73
2022/01/23 01:35:43;;;;;;;13.02;6.35;;;5.60;99.90;;;;;;5037128;28;20383;-73
2022/01/23 01:38:09;;;;;;;12.57;5.72;;;5.60;99.90;;;;;;5037108;28;20052;-76
2022/01/23 01:40:36;;;;;;;16.30;5.93;;;5.60;99.90;;;;;;5037148;28;20052;-73
2022/01/23 01:43:03;;;;;;;17.83;6.47;;;5.60;99.90;;;;;;5058289;28;20475;-73
2022/01/23 01:45:30;;;;;;;16.85;6.18;;;5.60;99.90;;;;;;5073772;28;20039;-76
2022/01/23 01:48:00;;;;;;;13.93;6.40;;;5.60;99.90;;;;;;5073780;28;20094;-73
2022/01/23 01:50:26;;;;;;;16.42;5.75;;;5.50;99.90;;;;;;5056717;28;20482;-73
2022/01/23 01:52:52;;;;;;;19.77;6.78;;;5.60;99.90;;;;;;5065646;28;20045;-73
2022/01/23 01:55:25;;;;;;;21.27;7.03;;;5.60;99.90;;;;;;5052901;28;20041;-73
2022/01/23 01:57:53;;;;;;;18.75;6.88;;;5.50;99.90;;;;;;5053645;28;20045;-72
2022/01/23 02:00:40;;;;;;;14.80;7.47;;;5.60;99.90;;;;;;5036889;28;20083;-74
2022/01/23 02:08:37;;;;;;;15.32;6.90;;;5.50;99.90;;;;;;5053333;28;20053;-73
2022/01/23 02:11:16;;;;;;;23.23;7.57;;;5.60;99.90;;;;;;5052857;28;20407;-73
2022/01/23 02:13:50;;;;;;;15.70;7.20;;;5.50;99.90;;;;;;5055626;28;20321;-72
2022/01/23 02:56:38;;;;;;;16.90;6.82;;;5.50;99.90;;;;;;5053060;28;20048;-73
2022/01/23 02:59:14;;;;;;;13.57;7.15;;;5.60;99.90;;;;;;5052519;28;20087;-73
2022/01/23 03:01:59;;;;;;;18.08;7.00;;;5.50;99.90;;;;;;5037528;28;20057;-75
2022/01/23 03:04:25;;;;;;;19.50;7.68;;;5.60;99.90;;;;;;5055436;28;20060;-72
2022/01/23 03:10:19;;;;;;;20.42;8.55;;;5.60;99.90;;;;;;5056580;28;20043;-75
2022/01/23 03:13:03;;;;;;;20.48;8.07;;;5.60;99.90;;;;;;5070660;28;20109;-73
2022/01/23 03:31:56;;;;;;;15.82;8.02;;;5.60;99.90;;;;;;5063642;28;20127;-73
2022/01/23 03:34:26;;;;;;;20.58;9.80;;;5.60;99.90;;;;;;5035441;28;20041;-73
2022/01/23 03:36:54;;;;;;;21.42;9.05;;;5.50;99.90;;;;;;5052021;28;20048;-73
2022/01/23 03:39:20;;;;;;;21.90;8.82;;;5.60;99.90;;;;;;5035520;28;20080;-73
2022/01/23 03:41:46;;;;;;;29.20;9.98;;;5.50;99.90;;;;;;5034800;28;20079;-74
2022/01/23 03:44:14;;;;;;;24.90;9.15;;;5.50;99.90;;;;;;5053985;28;20174;-73
2022/01/23 03:49:31;;;;;;;22.80;9.75;;;5.60;99.90;;;;;;5055985;28;20076;-72
2022/01/23 03:52:18;;;;;;;24.60;9.10;;;5.50;99.90;;;;;;5055589;28;20045;-73
2022/01/23 03:54:45;;;;;;;24.73;10.43;;;5.50;99.90;;;;;;5055700;28;20075;-73
2022/01/23 03:57:11;;;;;;;26.50;9.68;;;5.60;99.90;;;;;;5055841;28;20052;-73
2022/01/23 03:59:37;;;;;;;24.27;9.98;;;5.50;99.90;;;;;;5038775;28;20056;-72
2022/01/23 04:02:06;;;;;;;26.08;10.32;;;5.50;99.90;;;;;;5068456;28;20375;-73
2022/01/23 04:04:39;;;;;;;27.63;10.73;;;5.50;99.90;;;;;;5042821;28;20048;-74
2022/01/23 04:07:12;;;;;;;27.33;10.88;;;5.50;99.90;;;;;;5039611;28;20041;-75
2022/01/23 04:09:39;;;;;;;22.40;9.98;;;5.50;99.90;;;;;;5055614;28;20064;-72
2022/01/23 04:12:09;;;;;;;24.42;10.35;;;5.50;99.90;;;;;;5055371;28;20048;-75
2022/01/23 04:14:36;;;;;;;26.58;10.60;;;5.50;99.90;;;;;;5055331;28;20087;-73
2022/01/23 04:33:27;;;;;;;25.50;10.45;;;5.50;99.90;;;;;;5075229;28;20045;-73
2022/01/23 05:00:35;;;;;;;24.83;10.73;;;5.50;99.90;;;;;;5054161;28;20376;-75
2022/01/23 05:05:33;;;;;;;27.52;10.90;;;5.50;99.90;;;;;;5055570;28;20059;-73
2022/01/23 05:08:04;;;;;;;33.30;11.13;;;5.50;99.90;;;;;;5038004;28;20437;-73
2022/01/23 05:10:30;;;;;;;29.23;11.55;;;5.50;99.90;;;;;;5037504;28;20079;-73
2022/01/23 05:12:56;;;;;;;31.17;11.63;;;5.50;99.90;;;;;;5054444;28;20045;-73
2022/01/23 05:15:22;;;;;;;32.72;11.85;;;5.50;99.90;;;;;;5037503;28;20098;-73
2022/01/23 05:17:48;;;;;;;27.48;11.45;;;5.50;99.90;;;;;;5053769;28;20495;-73
2022/01/23 05:20:16;;;;;;;30.42;11.88;;;5.50;99.90;;;;;;5037293;28;20040;-73
2022/01/23 05:22:46;;;;;;;30.20;11.52;;;5.50;99.90;;;;;;5052537;28;20079;-73
2022/01/23 05:27:40;;;;;;;31.63;11.00;;;5.40;99.90;;;;;;5053892;28;20067;-75
2022/01/23 05:30:07;;;;;;;24.77;10.73;;;5.50;99.90;;;;;;5037238;28;20037;-72
2022/01/23 05:32:37;;;;;;;30.08;11.63;;;5.50;99.90;;;;;;5057565;28;20044;-73
2022/01/23 05:35:05;;;;;;;28.92;11.38;;;5.50;99.90;;;;;;5056672;28;20414;-73
2022/01/23 05:37:32;;;;;;;27.88;10.63;;;5.50;99.90;;;;;;5073853;28;20052;-75
2022/01/23 05:39:59;;;;;;;33.67;10.98;;;5.40;99.90;;;;;;5073453;28;20051;-72
2022/01/23 05:42:25;;;;;;;20.70;9.65;;;5.50;99.90;;;;;;5036997;28;20053;-73
2022/01/23 05:44:51;;;;;;;22.70;10.52;;;5.50;99.90;;;;;;5035814;28;20453;-75
2022/01/23 05:47:17;;;;;;;20.95;9.20;;;5.50;99.90;;;;;;5016150;28;20049;-72
2022/01/23 05:49:42;;;;;;;22.55;10.23;;;5.50;99.90;;;;;;5016069;28;20084;-73
2022/01/23 05:52:09;;;;;;;22.92;9.73;;;5.50;99.90;;;;;;5015703;28;20499;-73
2022/01/23 05:54:35;;;;;;;21.52;9.57;;;5.40;99.90;;;;;;5018533;28;20045;-73
2022/01/23 05:57:02;;;;;;;22.42;10.25;;;5.50;99.90;;;;;;5035955;28;20103;-73
2022/01/23 05:59:27;;;;;;;25.02;10.48;;;5.50;99.90;;;;;;5035428;28;20055;-74
2022/01/23 06:01:55;;;;;;;22.33;9.85;;;5.40;99.90;;;;;;5018746;28;20136;-73
2022/01/23 06:04:24;;;;;;;20.20;10.32;;;5.40;99.90;;;;;;5035769;28;20139;-72
2022/01/23 06:06:50;;;;;;;24.30;9.95;;;5.50;99.90;;;;;;5034811;28;20470;-73
2022/01/23 06:09:19;;;;;;;18.98;9.70;;;5.40;99.90;;;;;;5035568;28;20045;-75
2022/01/23 06:11:44;;;;;;;18.67;9.20;;;5.50;99.90;;;;;;5035117;28;20127;-75
2022/01/23 06:14:10;;;;;;;16.83;8.60;;;5.50;99.90;;;;;;5035115;28;20452;-74
2022/01/23 06:16:38;;;;;;;21.73;9.13;;;5.40;99.90;;;;;;5035361;28;20057;-74
2022/01/23 06:19:04;;;;;;;23.02;10.30;;;5.50;99.90;;;;;;5052063;28;20131;-73
2022/01/23 06:21:30;;;;;;;21.60;9.25;;;5.40;99.90;;;;;;5055152;28;20113;-72
2022/01/23 06:24:04;;;;;;;25.75;9.38;;;5.40;99.90;;;;;;5055260;28;20425;-73
2022/01/23 06:26:47;;;;;;;21.13;10.27;;;5.50;99.90;;;;;;5041607;28;20056;-73
2022/01/23 06:29:15;;;;;;;20.75;9.32;;;5.50;99.90;;;;;;5044087;28;20364;-73
2022/01/23 06:31:42;;;;;;;20.52;9.13;;;5.50;99.90;;;;;;5055495;28;20051;-73
2022/01/23 06:34:09;;;;;;;23.63;10.05;;;5.50;99.90;;;;;;5073013;28;20044;-75
2022/01/23 06:36:37;;;;;;;24.90;10.15;;;5.50;99.90;;;;;;5072529;28;20440;-73
2022/01/23 06:39:04;;;;;;;19.70;9.88;;;5.50;99.90;;;;;;5072324;28;20040;-73
2022/01/23 06:41:30;;;;;;;24.23;10.45;;;5.50;99.90;;;;;;5061974;28;20037;-73
2022/01/23 06:43:56;;;;;;;27.95;11.80;;;5.40;99.90;;;;;;5052849;28;20044;-73
2022/01/23 06:46:22;;;;;;;27.13;10.88;;;5.50;99.90;;;;;;5036157;28;20052;-72
2022/01/23 06:48:48;;;;;;;23.95;11.25;;;5.40;99.90;;;;;;5064381;28;20044;-73
2022/01/23 06:51:13;;;;;;;27.35;11.80;;;5.40;99.90;;;;;;5072372;28;20047;-72
2022/01/23 06:53:39;;;;;;;20.95;10.88;;;5.40;99.90;;;;;;5071731;28;20479;-73
2022/01/23 06:56:05;;;;;;;21.88;9.27;;;5.50;99.90;;;;;;5072799;28;20471;-73
2022/01/23 06:58:31;;;;;;;21.08;9.73;;;5.50;99.90;;;;;;5072696;28;20429;-73
2022/01/23 07:00:56;;;;;;;21.38;8.93;;;5.40;99.90;;;;;;5072118;28;20054;-74
2022/01/23 07:03:22;;;;;;;16.80;7.93;;;5.40;99.90;;;;;;5055965;28;20064;-73
2022/01/23 07:05:47;;;;;;;19.92;7.47;;;5.40;99.90;;;;;;5072246;28;20381;-73
2022/01/23 07:08:13;;;;;;;19.98;8.40;;;5.50;99.90;;;;;;5071988;28;20044;-73
2022/01/23 07:10:39;;;;;;;19.85;9.32;;;5.50;99.90;;;;;;5052272;28;20044;-79
2022/01/23 07:13:04;;;;;;;22.20;8.93;;;5.50;99.90;;;;;;5052892;28;20037;-73
2022/01/23 07:15:30;;;;;;;19.67;8.77;;;5.50;99.90;;;;;;5052611;28;20033;-73
2022/01/23 07:17:56;;;;;;;20.27;9.32;;;5.40;99.90;;;;;;5053824;28;20040;-73
2022/01/23 07:20:21;;;;;;;19.73;8.65;;;5.40;99.90;;;;;;5039622;28;20071;-73
2022/01/23 07:22:47;;;;;;;22.38;9.15;;;5.40;99.90;;;;;;5055572;28;20040;-72
2022/01/23 07:25:13;;;;;;;21.70;9.50;;;5.40;99.90;;;;;;5056567;28;20033;-73
2022/01/23 07:27:48;;;;;;;20.00;9.35;;;5.40;99.90;;;;;;5039449;28;20387;-73
2022/01/23 07:30:38;;;;;;;21.30;9.00;;;5.40;99.90;;;;;;5039733;28;20133;-74
2022/01/23 07:33:04;;;;;;;20.40;9.38;;;5.40;99.90;;;;;;5039370;28;20044;-75
2022/01/23 07:35:30;;;;;;;18.25;9.35;;;5.40;99.90;;;;;;5055778;28;20029;-75
2022/01/23 07:37:55;;;;;;;22.27;10.15;;;5.40;99.90;;;;;;5056286;28;20095;-73
2022/01/23 07:40:21;;;;;;;20.00;9.23;;;5.40;99.90;;;;;;5055679;28;20438;-75
2022/01/23 07:42:47;;;;;;;23.27;9.60;;;5.40;99.90;;;;;;5038985;28;20033;-75
2022/01/23 07:45:12;;;;;;;20.15;9.05;;;5.40;99.90;;;;;;5055888;28;20040;-74
2022/01/23 07:47:38;;;;;;;29.35;9.85;;;5.40;99.90;;;;;;5055909;28;20041;-73
2022/01/23 07:50:08;;;;;;;25.10;10.15;;;5.50;99.90;;;;;;5055396;28;20044;-75
2022/01/23 07:52:36;;;;;;;29.58;10.80;;;5.40;99.90;;;;;;5039471;28;20123;-73
2022/01/23 07:55:13;;;;;;;25.00;9.68;;;5.40;99.90;;;;;;5039376;28;20037;-74
2022/01/23 07:57:39;;;;;;;22.75;10.15;;;5.40;99.90;;;;;;5055575;28;20471;-73
2022/01/23 08:00:07;;;;;;;27.35;10.23;;;5.50;99.90;;;;;;5055626;28;20120;-74
2022/01/23 08:02:34;;;;;;;25.52;10.00;;;5.50;99.90;;;;;;5055284;28;20044;-73
2022/01/23 08:05:00;;;;;;;21.00;9.85;;;5.50;99.90;;;;;;5075097;28;20493;-74
2022/01/23 08:09:56;;;;;;;21.20;10.32;;;5.50;99.90;;;;;;5075582;28;20147;-73
2022/01/23 08:12:26;;;;;;;23.92;9.70;;;5.50;99.90;;;;;;5074163;28;20139;-73
2022/01/23 08:14:53;;;;;;;22.70;10.75;;;5.50;99.90;;;;;;5038203;28;20045;-73
2022/01/23 08:17:24;;;;;;;22.42;10.65;;;5.50;99.90;;;;;;5054770;28;20033;-74
2022/01/23 08:19:53;;;;;;;22.30;10.70;;;5.50;99.90;;;;;;5038408;28;20040;-73
2022/01/23 08:22:20;;;;;;;27.63;10.40;;;5.50;99.90;;;;;;5054821;28;20037;-74
2022/01/23 08:24:46;;;;;;;26.27;11.45;;;5.50;99.90;;;;;;5055054;28;20047;-73
2022/01/23 08:27:16;;;;;;;25.92;11.13;;;5.50;99.90;;;;;;5055026;28;20136;-73
2022/01/23 08:29:42;;;;;;;24.30;10.75;;;5.50;99.90;;;;;;5037384;28;20049;-74
2022/01/23 08:32:09;;;;;;;26.75;11.48;;;5.50;99.90;;;;;;5068970;28;20048;-73
2022/01/23 08:34:36;;;;;;;29.17;11.52;;;5.50;99.90;;;;;;5075248;28;20036;-72
2022/01/23 08:37:03;;;;;;;26.02;11.90;;;5.50;99.90;;;;;;5058312;28;20390;-72
2022/01/23 08:39:31;;;;;;;30.13;11.60;;;5.60;99.90;;;;;;5075079;28;20036;-72
2022/01/23 08:41:57;;;;;;;25.05;10.82;;;5.60;99.90;;;;;;5057568;28;20363;-72
2022/01/23 08:44:26;;;;;;;24.98;11.70;;;5.60;99.90;;;;;;5057829;28;20482;-72
2022/01/23 08:46:51;;;;;;;25.17;10.63;;;5.60;99.90;;;;;;5075101;28;20048;-74
2022/01/23 08:49:19;;;;;;;26.98;10.98;;;5.60;99.90;;;;;;5074870;28;20036;-73
2022/01/23 08:51:46;;;;;;;29.20;14.20;;;5.60;99.90;;;;;;5074763;28;20087;-73
2022/01/23 08:54:12;;;;;;;28.55;12.88;;;5.70;99.90;;;;;;5074815;28;20127;-72
2022/01/23 08:56:38;;;;;;;24.58;11.15;;;5.70;99.90;;;;;;5074419;28;20047;-73
2022/01/23 08:59:05;;;;;;;27.90;13.70;;;5.80;99.90;;;;;;5072217;28;20051;-73
2022/01/23 09:01:34;;;;;;;24.42;11.80;;;5.70;99.90;;;;;;5060055;28;20090;-74
2022/01/23 09:04:00;;;;;;;22.52;9.68;;;5.70;99.90;;;;;;5058202;28;20048;-74
2022/01/23 09:06:26;;;;;;;21.30;11.02;;;5.80;99.90;;;;;;5074670;28;20051;-72
2022/01/23 09:08:53;;;;;;;24.33;10.30;;;5.80;99.90;;;;;;5073962;28;20170;-72
2022/01/23 09:14:06;;;;;;;23.30;10.73;;;5.80;99.90;;;;;;5071698;28;20489;-73
2022/01/23 09:16:42;;;;;;;22.67;10.98;;;5.80;99.90;;;;;;5070988;28;20044;-72
2022/01/23 09:19:08;;;;;;;23.20;10.48;;;5.90;99.90;;;;;;5074023;28;20097;-72
2022/01/23 09:21:35;;;;;;;23.05;10.48;;;5.90;99.90;;;;;;5073918;28;20037;-76
2022/01/23 09:24:01;;;;;;;21.27;10.60;;;5.90;99.90;;;;;;5073932;28;20036;-73
2022/01/23 09:26:27;;;;;;;18.10;9.10;;;6.00;99.90;;;;;;5055538;28;20053;-74
2022/01/23 09:28:56;;;;;;;18.33;8.65;;;6.00;99.90;;;;;;5054871;28;20033;-73
2022/01/23 09:32:07;;;;;;;18.93;9.30;;;6.00;99.90;;;;;;5037654;28;20044;-72
2022/01/23 09:34:07;;;;;;;19.70;9.23;;;6.10;99.90;;;;;;5050144;28;20060;-73
2022/01/23 09:36:33;;;;;;;21.90;10.27;;;6.10;99.90;;;;;;5053468;28;20036;-73
2022/01/23 09:38:59;;;;;;;21.13;10.20;;;6.10;99.90;;;;;;5054157;28;20067;-74
2022/01/23 09:41:29;;;;;;;21.13;9.98;;;6.20;99.90;;;;;;5053948;28;20538;-73
2022/01/23 09:43:55;;;;;;;24.27;9.55;;;6.20;99.90;;;;;;5073553;28;20046;-73
2022/01/23 09:46:24;;;;;;;24.50;10.10;;;6.20;99.90;;;;;;5073546;28;20044;-73
2022/01/23 09:48:52;;;;;;;20.95;9.43;;;6.30;99.90;;;;;;5073374;28;20043;-71
2022/01/23 09:51:20;;;;;;;20.45;9.15;;;6.30;99.90;;;;;;5056586;28;20040;-73
2022/01/23 09:53:46;;;;;;;19.58;9.13;;;6.30;99.90;;;;;;5073933;28;20142;-73
2022/01/23 09:56:14;;;;;;;19.27;9.25;;;6.40;99.90;;;;;;5071638;28;20044;-72
2022/01/23 09:58:40;;;;;;;21.40;9.48;;;6.40;99.90;;;;;;5053467;28;20052;-73
2022/01/23 10:01:06;;;;;;;18.98;9.70;;;6.40;99.90;;;;;;5052965;28;20115;-75
2022/01/23 10:03:32;;;;;;;17.23;9.45;;;6.40;99.90;;;;;;5052805;28;20146;-73
2022/01/23 10:05:57;;;;;;;19.10;9.27;;;6.40;99.90;;;;;;5066228;28;20383;-74
2022/01/23 10:08:26;;;;;;;19.42;8.90;;;6.50;99.90;;;;;;5073228;28;20127;-73
2022/01/23 10:10:53;;;;;;;18.73;9.32;;;6.40;99.90;;;;;;5073249;28;20098;-73
2022/01/23 10:13:21;;;;;;;15.95;8.68;;;6.50;99.90;;;;;;5055136;28;20490;-72
2022/01/23 10:15:47;;;;;;;18.58;10.05;;;6.50;99.90;;;;;;5072976;28;20130;-72
2022/01/23 10:18:13;;;;;;;18.73;10.10;;;6.50;99.90;;;;;;5055712;28;20124;-73
2022/01/23 10:20:38;;;;;;;13.98;8.27;;;6.50;99.90;;;;;;5052969;28;20033;-74
2022/01/23 10:23:04;;;;;;;16.80;8.35;;;6.50;99.90;;;;;;5053180;28;20045;-73
2022/01/23 10:25:32;;;;;;;12.63;7.72;;;6.50;99.90;;;;;;5036269;28;20080;-74
2022/01/23 10:28:00;;;;;;;12.13;7.03;;;6.60;99.90;;;;;;5048681;28;20052;-73
2022/01/23 10:30:28;;;;;;;10.65;6.03;;;6.60;99.90;;;;;;5072745;28;20094;-73
2022/01/23 10:33:07;;;;;;;10.13;6.25;;;6.60;99.90;;;;;;5072479;28;20063;-74
2022/01/23 10:35:50;;;;;;;12.63;6.07;;;6.60;99.90;;;;;;5072631;28;20048;-73
2022/01/23 10:38:18;;;;;;;13.27;6.50;;;6.70;99.90;;;;;;5072977;28;20036;-73
2022/01/23 10:40:50;;;;;;;10.27;5.00;;;6.70;99.90;;;;;;5072488;28;20037;-73
2022/01/23 10:48:45;;;;;;;16.15;8.48;;;6.70;99.90;;;;;;5065913;28;20486;-73
2022/01/23 10:51:31;;;;;;;18.23;8.00;;;6.80;99.90;;;;;;5052574;28;20084;-74
2022/01/23 10:54:09;;;;;;;17.40;7.75;;;6.80;99.90;;;;;;5035723;28;20067;-75
2022/01/23 10:56:59;;;;;;;8.02;4.50;;;6.80;99.90;;;;;;5054533;28;20071;-75
2022/01/23 10:59:26;;;;;;;7.30;4.88;;;6.80;99.90;;;;;;5052673;28;20040;-73
2022/01/23 11:02:01;;;;;;;8.43;5.15;;;6.80;99.90;;;;;;5051613;28;20048;-73
2022/01/23 11:04:28;;;;;;;6.82;3.30;;;6.80;99.90;;;;;;5051946;28;20064;-73
2022/01/23 11:06:54;;;;;;;21.40;11.13;;;6.90;99.90;;;;;;5035754;28;20110;-73
2022/01/23 11:09:25;;;;;;;46.20;23.30;;;6.90;99.90;;;;;;5035811;28;20368;-74
2022/01/23 11:11:59;;;;;;;5.32;2.45;;;6.90;99.90;;;;;;5036477;28;20040;-73
2022/01/23 11:17:25;;;;;;;5.82;4.32;;;6.90;99.90;;;;;;5052381;28;20098;-73
2022/01/23 11:19:59;;;;;;;10.57;6.63;;;6.90;99.90;;;;;;5052490;28;20037;-73
2022/01/23 11:22:30;;;;;;;6.90;4.93;;;6.90;99.90;;;;;;5051930;28;20037;-73
2022/01/23 11:24:59;;;;;;;6.70;3.58;;;6.90;99.90;;;;;;5034950;28;20422;-75
2022/01/23 11:27:31;;;;;;;8.32;4.57;;;6.90;99.90;;;;;;5058950;28;20087;-74
2022/01/23 11:30:21;;;;;;;7.97;5.00;;;6.90;99.90;;;;;;5035562;28;20048;-73
2022/01/23 11:32:46;;;;;;;;;;;6.90;99.90;;;;;;5052657;28;20052;-74
2022/01/23 11:35:15;;;;;;;8.30;5.18;;;6.80;99.90;;;;;;5051901;28;19917;-73
2022/01/23 11:37:48;;;;;;;10.15;5.50;;;6.80;99.90;;;;;;5040277;28;20037;-73
2022/01/23 11:54:01;;;;;;;8.70;5.90;;;6.80;99.90;;;;;;5054133;28;20045;-75
2022/01/23 11:56:31;;;;;;;10.50;6.03;;;6.80;99.90;;;;;;5051668;28;20045;-73
2022/01/23 11:59:12;;;;;;;13.77;7.22;;;6.80;99.90;;;;;;5053781;28;20091;-73
2022/01/23 12:01:40;;;;;;;10.35;5.25;;;6.90;99.90;;;;;;5070639;28;20074;-73
2022/01/23 12:04:09;;;;;;;7.65;4.55;;;6.90;99.90;;;;;;5071110;28;20135;-73
2022/01/23 12:06:41;;;;;;;5.25;2.83;;;6.90;99.90;;;;;;5057898;28;20135;-73
2022/01/23 12:09:13;;;;;;;2.05;1.50;;;6.90;99.90;;;;;;5074330;28;20490;-73
2022/01/23 12:11:48;;;;;;;2.45;1.17;;;6.80;99.90;;;;;;5054216;28;20357;-73
2022/01/23 12:17:08;;;;;;;6.88;5.55;;;6.80;99.90;;;;;;5054556;28;20506;-74
2022/01/23 12:19:56;;;;;;;1.90;1.05;;;6.80;99.90;;;;;;5054228;28;20048;-74
2022/01/23 12:22:42;;;;;;;2.22;1.00;;;6.70;99.90;;;;;;5054278;28;20390;-78
2022/01/23 12:25:28;;;;;;;3.00;1.42;;;6.70;99.90;;;;;;5054356;28;20049;-73
2022/01/23 12:28:21;;;;;;;3.38;1.50;;;6.70;99.90;;;;;;5065319;28;20041;-73
2022/01/23 12:30:49;;;;;;;2.05;1.80;;;6.70;99.90;;;;;;5057705;28;20040;-74
2022/01/23 12:33:17;;;;;;;1.98;1.60;;;6.70;99.90;;;;;;5057572;28;20471;-74
2022/01/23 12:35:46;;;;;;;3.42;1.75;;;6.70;99.90;;;;;;5074240;28;20040;-74
2022/01/23 12:38:14;;;;;;;3.33;1.67;;;6.70;99.90;;;;;;5074078;28;20438;-75
2022/01/23 12:40:48;;;;;;;5.82;2.03;;;6.70;99.90;;;;;;5073872;28;20056;-74
2022/01/23 12:43:21;;;;;;;3.67;2.30;;;6.70;99.90;;;;;;5055374;28;20438;-73
2022/01/23 12:45:50;;;;;;;3.00;1.80;;;6.70;99.90;;;;;;5037412;28;20140;-74
2022/01/23 12:48:24;;;;;;;2.58;1.73;;;6.70;99.90;;;;;;5053773;28;20052;-74
2022/01/23 12:50:52;;;;;;;2.45;1.80;;;6.70;99.90;;;;;;5043764;28;20051;-73
2022/01/23 12:53:18;;;;;;;3.35;1.38;;;6.70;99.90;;;;;;5057277;28;20070;-73
2022/01/23 12:56:08;;;;;;;3.90;1.63;;;6.70;99.90;;;;;;5057047;28;20058;-73
2022/01/23 12:58:34;;;;;;;3.22;1.88;;;6.70;99.90;;;;;;5072217;28;20052;-75
2022/01/23 13:01:03;;;;;;;3.22;2.05;;;6.70;99.90;;;;;;5073091;28;20426;-75
2022/01/23 13:03:29;;;;;;;2.07;1.67;;;6.70;99.90;;;;;;5073564;28;20045;-75
2022/01/23 13:05:55;;;;;;;2.60;1.70;;;6.70;99.90;;;;;;5073643;28;20286;-74
2022/01/23 13:08:28;;;;;;;2.83;2.00;;;6.70;99.90;;;;;;5073544;28;20040;-72
2022/01/23 13:16:59;;;;;;;3.90;2.28;;;6.70;99.90;;;;;;5053239;28;20048;-73
2022/01/23 13:19:46;;;;;;;5.45;2.38;;;6.70;99.90;;;;;;5051019;28;20075;-73
2022/01/23 13:30:24;;;;;;;7.15;2.80;;;6.70;99.90;;;;;;5068573;28;20040;-73
2022/01/23 13:32:52;;;;;;;3.57;1.83;;;6.70;99.90;;;;;;5036485;28;20040;-74
2022/01/23 13:35:21;;;;;;;3.22;2.30;;;6.60;99.90;;;;;;5053129;28;20283;-72
2022/01/23 13:37:55;;;;;;;2.72;2.13;;;6.70;99.90;;;;;;5036488;28;20049;-75
2022/01/23 13:40:28;;;;;;;2.70;2.10;;;6.70;99.90;;;;;;5052314;28;20128;-73
2022/01/23 13:49:00;;;;;;;2.80;1.90;;;6.70;99.90;;;;;;5052474;28;20522;-73
2022/01/23 14:04:22;;;;;;;3.63;2.22;;;6.70;99.90;;;;;;5052998;28;20380;-72
2022/01/23 14:06:48;;;;;;;3.20;1.52;;;6.70;99.90;;;;;;5072182;28;20671;-75
2022/01/23 14:09:16;;;;;;;1.92;1.45;;;6.70;99.90;;;;;;5055764;28;20079;-73
2022/01/23 14:11:43;;;;;;;2.17;1.40;;;6.70;99.90;;;;;;5068947;28;20048;-74
2022/01/23 14:14:10;;;;;;;2.83;1.83;;;6.70;99.90;;;;;;5072317;28;20040;-74
2022/01/23 14:16:38;;;;;;;2.67;1.80;;;6.70;99.90;;;;;;5055208;28;20161;-75
2022/01/23 14:19:25;;;;;;;4.70;2.55;;;6.70;99.90;;;;;;5053544;28;20037;-73
2022/01/23 14:21:53;;;;;;;4.38;3.63;;;6.70;99.90;;;;;;5035341;28;20475;-74
2022/01/23 14:24:30;;;;;;;4.05;3.25;;;6.70;99.90;;;;;;5062777;28;20044;-73
2022/01/23 14:27:06;;;;;;;5.57;3.00;;;6.70;99.90;;;;;;5051353;28;20045;-73
2022/01/23 14:29:54;;;;;;;5.57;2.90;;;6.70;99.90;;;;;;5056818;28;20493;-74
2022/01/23 14:32:35;;;;;;;4.78;3.30;;;6.70;99.90;;;;;;5055069;28;20368;-73
2022/01/23 14:35:05;;;;;;;4.80;2.63;;;6.70;99.90;;;;;;5054994;28;20043;-75
2022/01/23 14:37:32;;;;;;;4.50;2.47;;;6.70;99.90;;;;;;5071725;28;20414;-72
2022/01/23 14:40:21;;;;;;;4.38;2.35;;;6.70;99.90;;;;;;5041859;28;20080;-74
2022/01/23 14:43:16;;;;;;;4.60;2.65;;;6.70;99.90;;;;;;5053464;28;20037;-73
2022/01/23 14:45:44;;;;;;;5.65;4.15;;;6.60;99.90;;;;;;5046861;28;20136;-73
2022/01/23 14:48:15;;;;;;;3.97;3.00;;;6.60;99.90;;;;;;5051725;28;20056;-73
2022/01/23 14:50:50;;;;;;;4.10;3.30;;;6.60;99.90;;;;;;5051026;28;20127;-73
2022/01/23 14:53:21;;;;;;;4.60;3.47;;;6.60;99.90;;;;;;5051689;28;20040;-73
2022/01/23 14:55:59;;;;;;;11.15;7.45;;;6.60;99.90;;;;;;5066396;28;20044;-73
2022/01/23 14:58:25;;;;;;;8.52;4.80;;;6.60;99.90;;;;;;5068704;28;20044;-73
2022/01/23 15:00:56;;;;;;;6.93;4.97;;;6.60;99.90;;;;;;5054873;28;20047;-74
2022/01/23 15:03:24;;;;;;;6.22;4.43;;;6.60;99.90;;;;;;5053991;28;20063;-74
2022/01/23 15:05:51;;;;;;;6.40;4.38;;;6.60;99.90;;;;;;5070324;28;20047;-74
2022/01/23 15:08:21;;;;;;;19.00;11.07;;;6.60;99.90;;;;;;5054952;28;20036;-73
2022/01/23 15:10:48;;;;;;;9.05;5.35;;;6.60;99.90;;;;;;5044247;28;20124;-73
2022/01/23 15:13:14;;;;;;;7.25;4.35;;;6.60;99.90;;;;;;5036920;28;20048;-73
2022/01/23 15:15:40;;;;;;;6.32;3.70;;;6.50;99.90;;;;;;5051547;28;20045;-75
2022/01/23 15:18:08;;;;;;;5.32;3.80;;;6.50;99.90;;;;;;5034783;28;20532;-75
2022/01/23 15:20:35;;;;;;;6.82;4.57;;;6.50;99.90;;;;;;5064616;28;20037;-73
2022/01/23 15:23:04;;;;;;;5.75;4.25;;;6.50;99.90;;;;;;5045842;28;20037;-73
2022/01/23 15:25:30;;;;;;;5.85;4.22;;;6.50;99.90;;;;;;5050936;28;20483;-72
2022/01/23 15:27:56;;;;;;;6.95;4.05;;;6.50;99.90;;;;;;5062475;28;20076;-72
2022/01/23 15:30:24;;;;;;;4.90;3.20;;;6.50;99.90;;;;;;5050699;28;20049;-73
2022/01/23 15:32:51;;;;;;;4.15;3.28;;;6.40;99.90;;;;;;5034471;28;20041;-73
2022/01/23 15:35:18;;;;;;;5.60;3.50;;;6.50;99.90;;;;;;5050783;28;20041;-73
2022/01/23 15:37:44;;;;;;;5.53;3.38;;;6.50;99.90;;;;;;5050834;28;20076;-72
2022/01/23 15:40:12;;;;;;;6.80;4.20;;;6.40;99.90;;;;;;5038255;28;20107;-75
2022/01/23 15:42:39;;;;;;;6.10;4.07;;;6.50;99.90;;;;;;5067392;28;20049;-73
2022/01/23 15:45:06;;;;;;;5.55;4.22;;;6.40;99.90;;;;;;5075194;28;20048;-74
2022/01/23 15:47:33;;;;;;;6.70;4.25;;;6.40;99.90;;;;;;5058333;28;20130;-73
2022/01/23 15:49:58;;;;;;;7.20;4.20;;;6.40;99.90;;;;;;5074836;28;20066;-73
2022/01/23 15:52:24;;;;;;;6.85;4.38;;;6.50;99.90;;;;;;5057910;28;20394;-73
2022/01/23 15:54:50;;;;;;;10.77;6.03;;;6.40;99.90;;;;;;5044510;28;20443;-72
2022/01/23 15:57:16;;;;;;;11.55;6.95;;;6.40;99.90;;;;;;5044010;28;20036;-73
2022/01/23 15:59:42;;;;;;;9.30;6.00;;;6.40;99.90;;;;;;5058286;28;20546;-74
2022/01/23 16:02:08;;;;;;;12.02;6.47;;;6.40;99.90;;;;;;5074409;28;20127;-73
2022/01/23 16:04:37;;;;;;;11.38;6.93;;;6.40;99.90;;;;;;5058032;28;20094;-74
2022/01/23 16:07:09;;;;;;;10.18;6.00;;;6.40;99.90;;;;;;5074421;28;20085;-73
2022/01/23 16:09:35;;;;;;;10.18;6.07;;;6.40;99.90;;;;;;5074703;28;20041;-75
2022/01/23 16:12:01;;;;;;;8.77;6.20;;;6.30;99.90;;;;;;5071374;28;20378;-73
2022/01/23 16:14:27;;;;;;;7.68;5.15;;;6.30;99.90;;;;;;5060825;28;20053;-74
2022/01/23 16:16:53;;;;;;;8.00;6.18;;;6.30;99.90;;;;;;5054316;28;20041;-73
2022/01/23 16:19:20;;;;;;;7.10;5.15;;;6.30;99.90;;;;;;5063469;28;20482;-73
2022/01/23 16:21:46;;;;;;;8.38;5.57;;;6.30;99.90;;;;;;5056133;28;20037;-75
2022/01/23 16:24:12;;;;;;;7.32;4.85;;;6.30;99.90;;;;;;5055698;28;20107;-73
2022/01/23 16:26:38;;;;;;;7.45;5.15;;;6.30;99.90;;;;;;5070796;28;20451;-71
2022/01/23 16:29:05;;;;;;;8.50;5.25;;;6.30;99.90;;;;;;5054282;28;20048;-74
2022/01/23 16:31:31;;;;;;;10.45;5.97;;;6.30;99.90;;;;;;5054279;28;20491;-72